Clever, Missouri
Current Conditions -  °F | °C
As of 3:52 PM on Wednesday 17 Dec 2014 (Local Time) from KSGF Reporting Station
Light Rain Light Rain  
Wind Chill: 29°   Ceiling: 6000
Heat Index: 33°   Visibility: 9mi
Dew Point: 28°   Wind: 5mph
Humidity: 82%   Direction: 50°NE
Pressure: 30.22"   Gusts: NA
Location:  37.03°N, 93.47°W
Report Text: KSGF 172152Z 05004KT 9SM -RA OVC060 01/M02 A3022 RMK AO2 RAB03 SLP244 P0001 T00061022
Loading
Personal Weather Stations






























Interactive Weather Map New forecast layout! Learn more

10-Day Weather Forecast

Advertisements
Track Severe Weather on mobile